createdAt,value
2022-09-18T00:01:29.059Z,6.77
2022-09-18T00:03:57.944Z,6.75
2022-09-18T00:06:26.905Z,6.84
2022-09-18T00:08:55.117Z,6.81
2022-09-18T00:11:23.850Z,6.84
2022-09-18T00:13:51.048Z,6.93
2022-09-18T00:16:19.142Z,6.83
2022-09-18T00:18:46.520Z,6.73
2022-09-18T00:21:18.530Z,6.76
2022-09-18T00:23:46.170Z,6.73
2022-09-18T00:26:14.806Z,6.75
2022-09-18T00:28:41.750Z,6.70
2022-09-18T00:31:14.550Z,6.69
2022-09-18T00:33:42.002Z,6.70
2022-09-18T00:36:11.138Z,6.62
2022-09-18T00:38:37.881Z,6.65
2022-09-18T00:41:07.250Z,6.62
2022-09-18T00:43:35.427Z,6.45
2022-09-18T00:46:04.995Z,6.43
2022-09-18T00:48:44.180Z,6.47
2022-09-18T00:51:11.119Z,6.44
2022-09-18T00:53:41.680Z,6.46
2022-09-18T00:56:09.989Z,6.48
2022-09-18T00:58:36.676Z,6.40
2022-09-18T01:01:03.568Z,6.43
2022-09-18T01:03:30.311Z,6.53
2022-09-18T01:06:04.178Z,6.48
2022-09-18T01:09:12.342Z,6.52
2022-09-18T01:12:25.030Z,6.48
2022-09-18T01:15:15.750Z,6.46
2022-09-18T01:18:18.181Z,6.45
2022-09-18T01:21:15.171Z,6.50
2022-09-18T01:23:53.964Z,6.45
2022-09-18T01:26:26.700Z,6.48
2022-09-18T01:29:09.481Z,6.46
2022-09-18T01:31:44.959Z,6.50
2022-09-18T01:34:17.640Z,6.59
2022-09-18T01:36:47.579Z,6.67
2022-09-18T01:39:39.570Z,6.59
2022-09-18T01:42:07.384Z,6.72
2022-09-18T01:44:35.569Z,6.65
2022-09-18T01:47:05.250Z,6.61
2022-09-18T01:49:37.328Z,6.60
2022-09-18T01:52:10.663Z,6.57
2022-09-18T01:54:39.352Z,6.54
2022-09-18T01:57:10.999Z,6.51
2022-09-18T01:59:50.938Z,6.51
2022-09-18T02:02:51.970Z,6.58
2022-09-18T02:05:24.541Z,6.50
2022-09-18T02:08:22.259Z,6.45
2022-09-18T02:10:53.909Z,6.47
2022-09-18T02:13:25.708Z,6.45
2022-09-18T02:15:57.812Z,6.42
2022-09-18T02:18:29.080Z,6.46
2022-09-18T02:20:56.740Z,6.44
2022-09-18T02:23:23.819Z,6.46
2022-09-18T02:25:54.693Z,6.45
2022-09-18T02:28:23.368Z,6.40
2022-09-18T02:30:50.003Z,6.47
2022-09-18T02:33:25.840Z,6.36
2022-09-18T02:36:09.600Z,6.44
2022-09-18T02:38:47.139Z,6.48
2022-09-18T02:41:48.880Z,6.50
2022-09-18T02:44:20.900Z,6.40
2022-09-18T02:47:10.419Z,6.42
2022-09-18T02:49:52.084Z,6.49
2022-09-18T02:52:24.568Z,6.43
2022-09-18T02:54:57.911Z,6.39
2022-09-18T02:57:31.252Z,6.38
2022-09-18T03:00:00.013Z,6.38
2022-09-18T03:02:26.863Z,6.47
2022-09-18T03:04:53.909Z,6.45
2022-09-18T03:07:20.700Z,6.48
2022-09-18T03:09:47.569Z,6.48
2022-09-18T03:12:14.381Z,6.44
2022-09-18T03:14:41.193Z,6.40
2022-09-18T03:17:08.175Z,6.40
2022-09-18T03:19:34.799Z,6.43
2022-09-18T03:22:01.724Z,6.44
2022-09-18T03:24:28.429Z,6.42
2022-09-18T03:26:55.159Z,6.46
2022-09-18T03:29:21.898Z,6.42
2022-09-18T03:31:48.949Z,6.29
2022-09-18T03:34:15.682Z,6.27
2022-09-18T03:36:42.411Z,6.30
2022-09-18T03:39:09.179Z,6.48
2022-09-18T03:41:35.871Z,6.61
2022-09-18T03:44:02.759Z,6.53
2022-09-18T03:46:29.544Z,6.52
2022-09-18T03:48:56.422Z,6.43
2022-09-18T03:51:23.460Z,6.41
2022-09-18T03:53:51.391Z,6.47
2022-09-18T03:56:18.580Z,6.48
2022-09-18T03:58:45.349Z,6.52
2022-09-18T04:01:13.740Z,6.42
2022-09-18T04:03:40.826Z,6.53
2022-09-18T04:06:07.979Z,6.59
2022-09-18T04:08:35.464Z,6.58
2022-09-18T04:11:04.618Z,6.66
2022-09-18T04:13:34.790Z,6.66
2022-09-18T04:16:01.776Z,6.60
2022-09-18T04:18:28.787Z,6.37
2022-09-18T04:20:55.387Z,6.53
2022-09-18T04:23:22.128Z,6.40
2022-09-18T04:25:48.771Z,6.45
2022-09-18T04:28:15.472Z,6.45
2022-09-18T04:30:42.509Z,6.39
2022-09-18T04:33:09.163Z,6.42
2022-09-18T04:35:35.796Z,6.35
2022-09-18T04:38:02.375Z,6.35
2022-09-18T04:40:29.137Z,6.36
2022-09-18T04:42:56.045Z,6.28
2022-09-18T04:45:22.723Z,6.32
2022-09-18T04:47:49.648Z,6.32
2022-09-18T04:50:16.426Z,6.34
2022-09-18T04:52:43.948Z,6.26
2022-09-18T04:55:10.622Z,6.43
2022-09-18T04:57:37.241Z,6.32
2022-09-18T05:00:06.612Z,6.34
2022-09-18T05:02:33.312Z,6.29
2022-09-18T05:04:59.943Z,6.35
2022-09-18T05:07:27.676Z,6.39
2022-09-18T05:09:54.287Z,6.36
2022-09-18T05:12:20.912Z,6.32
2022-09-18T05:14:47.511Z,6.40
2022-09-18T05:17:14.076Z,6.49
2022-09-18T05:19:40.651Z,6.45
2022-09-18T05:22:07.202Z,6.47
2022-09-18T05:24:33.789Z,6.33
2022-09-18T05:27:00.421Z,6.39
2022-09-18T05:29:26.995Z,6.36
2022-09-18T05:31:53.616Z,6.48
2022-09-18T05:34:20.412Z,6.62
2022-09-18T05:36:47.070Z,6.56
2022-09-18T05:39:17.413Z,6.48
2022-09-18T05:41:44.502Z,6.51
2022-09-18T05:44:11.135Z,6.51
2022-09-18T05:46:37.777Z,6.45
2022-09-18T05:49:06.437Z,6.47
2022-09-18T05:51:33.102Z,6.41
2022-09-18T05:53:59.938Z,6.56
2022-09-18T05:56:28.013Z,6.53
2022-09-18T05:58:54.680Z,6.59
2022-09-18T06:01:21.294Z,6.57
2022-09-18T06:03:50.984Z,6.58
2022-09-18T06:06:17.814Z,6.56
2022-09-18T06:08:44.443Z,6.51
2022-09-18T06:11:11.055Z,6.50
2022-09-18T06:13:37.789Z,6.55
2022-09-18T06:16:04.538Z,6.66
2022-09-18T06:18:31.180Z,6.78
2022-09-18T06:20:59.123Z,6.77
2022-09-18T06:23:27.606Z,6.74
2022-09-18T06:26:05.823Z,6.73
2022-09-18T06:28:34.218Z,6.83
2022-09-18T06:31:01.983Z,6.93
2022-09-18T06:33:32.663Z,6.94
2022-09-18T06:36:00.706Z,7.06
2022-09-18T06:38:27.384Z,7.11
2022-09-18T06:40:54.779Z,7.14
2022-09-18T06:43:22.114Z,7.07
2022-09-18T06:45:55.605Z,7.11
2022-09-18T06:48:23.275Z,7.10
2022-09-18T06:50:58.008Z,7.10
2022-09-18T06:53:26.033Z,7.08
2022-09-18T06:55:52.735Z,7.02
2022-09-18T06:58:19.952Z,6.90
2022-09-18T07:00:46.784Z,6.95
2022-09-18T07:03:13.494Z,6.91
2022-09-18T07:05:50.958Z,7.05
2022-09-18T07:08:17.504Z,7.11
2022-09-18T07:10:44.588Z,7.36
2022-09-18T07:13:11.115Z,7.44
2022-09-18T07:15:37.713Z,7.70
2022-09-18T07:18:05.226Z,8.27
2022-09-18T07:20:31.950Z,8.35
2022-09-18T07:23:00.490Z,8.16
2022-09-18T07:25:29.215Z,7.95
2022-09-18T07:27:55.893Z,7.98
2022-09-18T07:30:22.720Z,7.86
2022-09-18T07:32:49.597Z,7.83
2022-09-18T07:35:16.300Z,7.85
2022-09-18T07:37:43.046Z,8.10
2022-09-18T07:40:12.216Z,8.19
2022-09-18T07:42:39.967Z,8.00
2022-09-18T07:45:07.080Z,8.08
2022-09-18T07:47:33.799Z,8.14
2022-09-18T07:50:00.435Z,8.12
2022-09-18T07:52:27.053Z,7.98
2022-09-18T07:54:53.628Z,7.93
2022-09-18T07:57:20.506Z,8.06
2022-09-18T07:59:47.069Z,8.02
2022-09-18T08:02:13.902Z,8.06
2022-09-18T08:04:40.683Z,8.02
2022-09-18T08:07:07.560Z,7.98
2022-09-18T08:09:34.175Z,8.15
2022-09-18T08:12:01.135Z,8.14
2022-09-18T08:14:29.098Z,8.13
2022-09-18T08:16:56.233Z,8.22
2022-09-18T08:19:22.940Z,8.08
2022-09-18T08:21:49.681Z,8.24
2022-09-18T08:24:17.614Z,8.20
2022-09-18T08:26:44.930Z,8.38
2022-09-18T08:29:18.812Z,8.62
2022-09-18T08:31:48.688Z,9.02
2022-09-18T08:34:15.448Z,9.14
2022-09-18T08:36:42.081Z,9.00
2022-09-18T08:39:08.751Z,9.22
2022-09-18T08:42:07.729Z,9.48
2022-09-18T08:44:43.617Z,9.34
2022-09-18T08:47:18.260Z,9.21
2022-09-18T08:49:51.855Z,9.32
2022-09-18T08:52:21.128Z,9.44
2022-09-18T08:54:47.850Z,9.67
2022-09-18T08:57:17.084Z,9.52
2022-09-18T08:59:50.414Z,9.55
2022-09-18T09:02:24.977Z,9.77
2022-09-18T09:04:54.587Z,10.09
2022-09-18T09:07:36.627Z,10.14
2022-09-18T09:10:20.180Z,10.69
2022-09-18T09:13:34.910Z,10.56
2022-09-18T09:16:10.589Z,10.65
2022-09-18T09:18:49.414Z,10.34
2022-09-18T09:21:46.338Z,10.70
2022-09-18T09:24:36.827Z,10.22
2022-09-18T09:27:17.423Z,9.91
2022-09-18T09:29:45.431Z,10.13
2022-09-18T09:32:25.998Z,10.20
2022-09-18T09:34:57.298Z,10.49
2022-09-18T09:37:31.839Z,10.33
2022-09-18T09:40:07.228Z,10.12
2022-09-18T09:43:03.141Z,10.31
2022-09-18T09:45:47.915Z,9.67
2022-09-18T09:48:30.695Z,9.60
2022-09-18T09:51:03.298Z,9.40
2022-09-18T09:53:30.154Z,9.61
2022-09-18T09:56:14.339Z,9.54
2022-09-18T09:58:55.617Z,9.77
2022-09-18T10:01:26.601Z,9.62
2022-09-18T10:04:08.268Z,9.79
2022-09-18T10:06:41.770Z,10.07
2022-09-18T10:09:31.061Z,10.20
2022-09-18T10:12:18.443Z,10.29
2022-09-18T10:14:46.578Z,10.09
2022-09-18T10:17:13.952Z,9.87
2022-09-18T10:19:43.078Z,9.64
2022-09-18T10:22:13.467Z,9.46
2022-09-18T10:24:40.103Z,9.77
2022-09-18T10:27:11.677Z,9.75
2022-09-18T10:29:38.758Z,10.10
2022-09-18T10:32:07.032Z,9.50
2022-09-18T10:34:45.200Z,9.57
2022-09-18T10:37:42.211Z,9.82
2022-09-18T10:40:29.107Z,9.88
2022-09-18T10:42:56.443Z,9.68
2022-09-18T10:45:38.045Z,9.77
2022-09-18T10:48:11.171Z,9.80
2022-09-18T10:50:37.868Z,9.99
2022-09-18T10:53:28.419Z,10.29
2022-09-18T10:55:56.056Z,10.46
2022-09-18T10:58:29.739Z,10.55
2022-09-18T11:01:01.741Z,10.44
2022-09-18T11:03:35.317Z,10.23
2022-09-18T11:06:04.154Z,10.29
2022-09-18T11:08:34.649Z,10.33
2022-09-18T11:11:07.921Z,10.31
2022-09-18T11:13:42.398Z,10.25
2022-09-18T11:16:09.124Z,10.21
2022-09-18T11:18:35.936Z,10.49
2022-09-18T11:21:06.128Z,10.35
2022-09-18T11:23:35.064Z,10.53
2022-09-18T11:26:12.619Z,10.35
2022-09-18T11:28:40.515Z,10.12
2022-09-18T11:31:16.534Z,10.15
2022-09-18T11:33:47.610Z,10.41
2022-09-18T11:36:16.777Z,10.36
2022-09-18T11:38:45.246Z,9.99
2022-09-18T11:41:13.589Z,10.14
2022-09-18T11:43:43.193Z,9.87
2022-09-18T11:46:12.506Z,9.74
2022-09-18T11:49:08.155Z,9.68
2022-09-18T11:51:47.294Z,9.75
2022-09-18T11:54:40.080Z,10.04
2022-09-18T11:57:18.517Z,10.13
2022-09-18T11:59:51.826Z,9.96
2022-09-18T12:02:27.574Z,9.67
2022-09-18T12:05:13.748Z,9.71
2022-09-18T12:07:48.565Z,9.79
2022-09-18T12:10:52.838Z,9.65
2022-09-18T12:13:31.732Z,9.68
2022-09-18T12:16:10.667Z,9.86
2022-09-18T12:18:48.218Z,10.21
2022-09-18T12:21:18.351Z,10.01
2022-09-18T12:23:45.049Z,9.84
2022-09-18T12:26:39.574Z,9.84
2022-09-18T12:29:24.684Z,9.91
2022-09-18T12:31:57.733Z,9.91
2022-09-18T12:34:36.249Z,10.03
2022-09-18T12:37:25.890Z,9.98
2022-09-18T12:39:53.121Z,10.35
2022-09-18T12:42:59.315Z,10.16
2022-09-18T12:45:28.625Z,10.17
2022-09-18T12:48:13.203Z,10.38
2022-09-18T12:51:01.222Z,10.10
2022-09-18T12:53:35.216Z,10.21
2022-09-18T12:56:24.743Z,10.47
2022-09-18T12:59:12.513Z,10.67
2022-09-18T13:02:11.420Z,10.57
2022-09-18T13:04:46.308Z,10.47
2022-09-18T13:07:30.473Z,10.13
2022-09-18T13:10:15.985Z,10.35
2022-09-18T13:12:57.950Z,10.12
2022-09-18T13:15:30.587Z,10.22
2022-09-18T13:18:09.025Z,10.08
2022-09-18T13:20:42.846Z,9.96
2022-09-18T13:23:31.904Z,10.14
2022-09-18T13:25:58.992Z,10.21
2022-09-18T13:28:27.661Z,10.13
2022-09-18T13:31:28.972Z,9.85
2022-09-18T13:34:06.624Z,10.19
2022-09-18T13:36:35.805Z,10.09
2022-09-18T13:39:16.219Z,10.02
2022-09-18T13:41:45.901Z,10.14
2022-09-18T13:44:21.463Z,10.08
2022-09-18T13:46:49.552Z,10.12
2022-09-18T13:49:20.456Z,9.96
2022-09-18T13:51:47.362Z,10.07
2022-09-18T13:54:13.960Z,10.01
2022-09-18T13:57:20.582Z,10.03
2022-09-18T13:59:48.366Z,9.81
2022-09-18T14:02:24.087Z,9.91
2022-09-18T14:05:06.020Z,9.88
2022-09-18T14:07:32.622Z,9.83
2022-09-18T14:10:05.677Z,9.87
2022-09-18T14:12:34.442Z,9.94
2022-09-18T14:15:01.117Z,9.87
2022-09-18T14:17:28.798Z,10.04
2022-09-18T14:20:06.147Z,10.19
2022-09-18T14:22:34.533Z,10.29
2022-09-18T14:25:03.567Z,10.23
2022-09-18T14:27:42.104Z,9.94
2022-09-18T14:30:22.484Z,9.88
2022-09-18T14:32:57.345Z,9.99
2022-09-18T14:35:42.814Z,10.04
2022-09-18T14:38:22.484Z,9.79
2022-09-18T14:40:55.346Z,9.83
2022-09-18T14:43:23.407Z,10.07
2022-09-18T14:45:50.690Z,9.83
2022-09-18T14:48:28.975Z,9.84
2022-09-18T14:51:01.911Z,9.99
2022-09-18T14:53:29.738Z,9.79
2022-09-18T14:56:07.000Z,9.67
2022-09-18T14:58:38.750Z,9.67
2022-09-18T15:01:07.833Z,9.62
2022-09-18T15:03:38.395Z,9.69
2022-09-18T15:06:10.573Z,9.71
2022-09-18T15:08:37.775Z,9.68
2022-09-18T15:11:05.162Z,9.86
2022-09-18T15:13:33.929Z,9.76
2022-09-18T15:16:04.427Z,9.67
2022-09-18T15:18:39.736Z,9.73
2022-09-18T15:21:06.749Z,9.72
2022-09-18T15:23:38.693Z,9.57
2022-09-18T15:26:11.567Z,9.67
2022-09-18T15:28:38.890Z,9.67
2022-09-18T15:31:09.034Z,9.74
2022-09-18T15:33:37.998Z,9.75
2022-09-18T15:36:05.228Z,9.68
2022-09-18T15:38:43.362Z,9.53
2022-09-18T15:41:30.883Z,9.44
2022-09-18T15:43:57.713Z,9.55
2022-09-18T15:46:35.995Z,9.50
2022-09-18T15:49:24.285Z,9.50
2022-09-18T15:51:51.095Z,9.49
2022-09-18T15:54:17.815Z,9.45
2022-09-18T15:56:53.155Z,9.53
2022-09-18T15:59:37.386Z,9.36
2022-09-18T16:02:19.600Z,9.39
2022-09-18T16:04:46.344Z,9.38
2022-09-18T16:07:27.062Z,9.36
2022-09-18T16:09:54.014Z,9.42
2022-09-18T16:12:41.965Z,9.35
2022-09-18T16:15:25.528Z,9.34
2022-09-18T16:18:04.134Z,9.27
2022-09-18T16:20:33.072Z,9.23
2022-09-18T16:24:01.502Z,9.25
2022-09-18T16:26:33.002Z,9.14
2022-09-18T16:29:01.940Z,9.17
2022-09-18T16:31:31.733Z,9.23
2022-09-18T16:34:03.872Z,9.14
2022-09-18T16:36:36.219Z,9.09
2022-09-18T16:39:10.633Z,9.19
2022-09-18T16:41:37.812Z,9.13
2022-09-18T16:44:05.834Z,9.13
2022-09-18T16:46:37.095Z,9.08
2022-09-18T16:49:04.354Z,9.16
2022-09-18T16:51:31.064Z,9.03
2022-09-18T16:53:57.934Z,9.03
2022-09-18T16:56:28.406Z,9.08
2022-09-18T16:58:56.297Z,9.04
2022-09-18T17:01:23.440Z,8.95
2022-09-18T17:03:50.876Z,8.98
2022-09-18T17:06:19.048Z,8.93
2022-09-18T17:08:46.863Z,8.86
2022-09-18T17:11:13.635Z,8.78
2022-09-18T17:13:40.321Z,8.66
2022-09-18T17:16:07.147Z,8.78
2022-09-18T17:18:34.940Z,8.69
2022-09-18T17:21:05.460Z,8.71
2022-09-18T17:23:32.700Z,8.67
2022-09-18T17:26:11.883Z,8.66
2022-09-18T17:28:38.849Z,8.67
2022-09-18T17:31:13.424Z,8.58
2022-09-18T17:33:41.065Z,8.59
2022-09-18T17:36:09.567Z,8.63
2022-09-18T17:38:36.588Z,8.72
2022-09-18T17:41:06.294Z,8.73
2022-09-18T17:43:33.622Z,8.67
2022-09-18T17:46:02.342Z,8.65
2022-09-18T17:48:31.203Z,8.62
2022-09-18T17:50:59.252Z,8.64
2022-09-18T17:53:26.823Z,8.55
2022-09-18T17:55:55.602Z,8.58
2022-09-18T17:58:22.276Z,8.60
2022-09-18T18:00:48.931Z,8.65
2022-09-18T18:03:15.551Z,8.64
2022-09-18T18:05:50.869Z,8.60
2022-09-18T18:08:17.507Z,8.62
2022-09-18T18:10:44.113Z,8.58
2022-09-18T18:13:11.357Z,8.56
2022-09-18T18:15:38.033Z,8.58
2022-09-18T18:18:05.132Z,8.53
2022-09-18T18:20:32.169Z,8.49
2022-09-18T18:22:58.833Z,8.45
2022-09-18T18:25:25.716Z,8.47
2022-09-18T18:27:54.072Z,8.53
2022-09-18T18:30:22.523Z,8.48
2022-09-18T18:32:49.131Z,8.44
2022-09-18T18:35:15.861Z,8.45
2022-09-18T18:37:42.551Z,8.43
2022-09-18T18:40:09.601Z,8.40
2022-09-18T18:42:36.272Z,8.36
2022-09-18T18:45:03.229Z,8.37
2022-09-18T18:47:29.965Z,8.34
2022-09-18T18:49:59.474Z,8.36
2022-09-18T18:52:26.713Z,8.43
2022-09-18T18:54:53.592Z,8.43
2022-09-18T18:57:21.673Z,8.44
2022-09-18T18:59:48.304Z,8.43
2022-09-18T19:02:14.992Z,8.44
2022-09-18T19:04:43.146Z,8.26
2022-09-18T19:07:10.810Z,8.30
2022-09-18T19:09:37.450Z,8.29
2022-09-18T19:12:04.145Z,8.25
2022-09-18T19:14:33.115Z,8.18
2022-09-18T19:17:00.200Z,8.28
2022-09-18T19:19:28.505Z,8.30
2022-09-18T19:21:59.480Z,8.49
2022-09-18T19:24:27.006Z,8.40
2022-09-18T19:26:53.853Z,8.44
2022-09-18T19:29:21.701Z,8.39
2022-09-18T19:31:49.397Z,8.30
2022-09-18T19:34:20.232Z,8.23
2022-09-18T19:36:50.417Z,8.23
2022-09-18T19:39:18.584Z,8.20
2022-09-18T19:41:55.255Z,8.22
2022-09-18T19:44:44.419Z,8.14
2022-09-18T19:47:27.109Z,8.15
2022-09-18T19:49:55.983Z,8.16
2022-09-18T19:52:25.042Z,8.09
2022-09-18T19:54:53.955Z,8.15
2022-09-18T19:57:20.773Z,8.20
2022-09-18T19:59:47.637Z,8.21
2022-09-18T20:02:17.302Z,8.19
2022-09-18T20:04:44.150Z,8.17
2022-09-18T20:07:10.984Z,8.15
2022-09-18T20:09:37.571Z,8.14
2022-09-18T20:12:04.573Z,8.08
2022-09-18T20:14:31.156Z,8.05
2022-09-18T20:16:57.844Z,8.08
2022-09-18T20:19:25.317Z,8.03
2022-09-18T20:21:53.135Z,8.02
2022-09-18T20:24:20.073Z,8.00
2022-09-18T20:26:47.036Z,8.01
2022-09-18T20:29:16.134Z,7.99
2022-09-18T20:31:43.347Z,8.01
2022-09-18T20:34:11.136Z,7.94
2022-09-18T20:36:38.229Z,7.92
2022-09-18T20:39:05.402Z,7.92
2022-09-18T20:41:32.235Z,7.90
2022-09-18T20:44:05.688Z,7.91
2022-09-18T20:46:36.827Z,7.87
2022-09-18T20:49:04.035Z,7.89
2022-09-18T20:51:34.848Z,7.98
2022-09-18T20:54:03.448Z,7.77
2022-09-18T20:56:32.321Z,7.83
2022-09-18T20:58:59.345Z,7.89
2022-09-18T21:01:27.899Z,7.85
2022-09-18T21:03:56.734Z,7.90
2022-09-18T21:06:26.393Z,7.87
2022-09-18T21:08:54.760Z,7.83
2022-09-18T21:11:25.064Z,7.91
2022-09-18T21:13:54.226Z,7.88
2022-09-18T21:16:22.161Z,7.89
2022-09-18T21:18:49.767Z,7.85
2022-09-18T21:21:17.201Z,7.98
2022-09-18T21:24:02.626Z,7.95
2022-09-18T21:26:36.707Z,7.91
2022-09-18T21:29:03.298Z,7.88
2022-09-18T21:31:31.200Z,7.85
2022-09-18T21:34:00.301Z,7.86
2022-09-18T21:36:27.482Z,7.95
2022-09-18T21:38:54.718Z,7.80
2022-09-18T21:41:23.056Z,7.74
2022-09-18T21:43:51.009Z,7.81
2022-09-18T21:46:20.708Z,7.88
2022-09-18T21:48:48.712Z,7.79
2022-09-18T21:51:17.176Z,7.81
2022-09-18T21:53:44.586Z,7.75
2022-09-18T21:56:17.186Z,7.79
2022-09-18T21:58:45.152Z,7.77
2022-09-18T22:01:19.238Z,7.87
2022-09-18T22:03:52.322Z,7.83
2022-09-18T22:06:24.246Z,7.85
2022-09-18T22:08:54.446Z,7.83
2022-09-18T22:11:24.255Z,7.82
2022-09-18T22:13:52.689Z,7.83
2022-09-18T22:16:20.313Z,7.73
2022-09-18T22:18:49.929Z,7.72
2022-09-18T22:21:19.298Z,7.74
2022-09-18T22:23:49.241Z,7.76
2022-09-18T22:26:16.165Z,7.79
2022-09-18T22:28:47.040Z,7.71
2022-09-18T22:31:13.793Z,7.74
2022-09-18T22:33:40.401Z,7.76
2022-09-18T22:36:07.672Z,7.82
2022-09-18T22:38:34.248Z,7.71
2022-09-18T22:41:02.912Z,7.64
2022-09-18T22:43:29.829Z,7.64
2022-09-18T22:46:08.312Z,7.66
2022-09-18T22:48:35.623Z,7.67
2022-09-18T22:51:10.155Z,7.65
2022-09-18T22:53:37.834Z,7.62
2022-09-18T22:56:09.962Z,7.62
2022-09-18T22:58:37.610Z,7.64
2022-09-18T23:01:10.240Z,7.62
2022-09-18T23:03:38.179Z,7.61
2022-09-18T23:06:06.473Z,7.62
2022-09-18T23:08:34.931Z,7.63
2022-09-18T23:11:03.410Z,7.62
2022-09-18T23:13:32.115Z,7.59
2022-09-18T23:16:17.610Z,7.59
2022-09-18T23:18:49.272Z,7.58
2022-09-18T23:21:16.287Z,7.61
2022-09-18T23:23:44.527Z,7.63
2022-09-18T23:26:13.730Z,7.56
2022-09-18T23:28:44.635Z,7.61
2022-09-18T23:31:14.410Z,7.67
2022-09-18T23:33:42.380Z,7.59
2022-09-18T23:36:15.311Z,7.61
2022-09-18T23:38:42.981Z,7.67
2022-09-18T23:41:12.349Z,7.71
2022-09-18T23:43:40.077Z,7.67
2022-09-18T23:46:09.016Z,7.67
2022-09-18T23:48:35.720Z,7.77
2022-09-18T23:51:03.155Z,7.77
2022-09-18T23:53:38.035Z,7.73
2022-09-18T23:56:10.548Z,7.72
2022-09-18T23:58:38.154Z,7.78
